Rochester Hills, Michigan
Current Conditions -  °F | °C
As of 12:15 AM on Monday 20 Oct 2014 (Local Time) from KVLL Reporting Station
Overcast Overcast  
Wind Chill:   Ceiling: 10000
Heat Index:   Visibility: 10mi
Dew Point:   Wind: 6mph
Humidity: 54%   Direction: 200°SSW
Pressure: 29.98"   Gusts: NA
Location:  42.66°N, 83.16°W
Report Text: KVLL 200415Z AUTO 20005KT 10SM OVC100 09/00 A2998 RMK AO2 T00900002
Loading
Personal Weather Stations






























Interactive Weather Map
Tropical Storm Tracking
New forecast layout! Learn more

10-Day Weather Forecast

Advertisements
Track Severe Weather on mobile